sensor_id;sensor_type;location;lat;lon;timestamp;P1;durP1;ratioP1;P2;durP2;ratioP2
67041;SDS011;53949;47.790;18.750;2022-08-23T00:00:45;103.63;;;12.03;;
67041;SDS011;53949;47.790;18.750;2022-08-23T00:03:51;65.18;;;10.45;;
67041;SDS011;53949;47.790;18.750;2022-08-23T00:06:56;42.90;;;9.82;;
67041;SDS011;53949;47.790;18.750;2022-08-23T00:10:02;22.70;;;9.77;;
67041;SDS011;53949;47.790;18.750;2022-08-23T00:13:06;82.27;;;11.50;;
67041;SDS011;53949;47.790;18.750;2022-08-23T00:16:09;32.97;;;10.38;;
67041;SDS011;53949;47.790;18.750;2022-08-23T00:19:13;61.60;;;11.63;;
67041;SDS011;53949;47.790;18.750;2022-08-23T00:22:18;40.63;;;11.18;;
67041;SDS011;53949;47.790;18.750;2022-08-23T00:25:21;48.95;;;10.00;;
67041;SDS011;53949;47.790;18.750;2022-08-23T00:28:24;46.10;;;11.63;;
67041;SDS011;53949;47.790;18.750;2022-08-23T00:31:26;60.72;;;12.15;;
67041;SDS011;53949;47.790;18.750;2022-08-23T00:34:30;149.87;;;14.05;;
67041;SDS011;53949;47.790;18.750;2022-08-23T00:37:33;215.23;;;15.43;;
67041;SDS011;53949;47.790;18.750;2022-08-23T00:40:36;42.03;;;11.32;;
67041;SDS011;53949;47.790;18.750;2022-08-23T00:43:39;206.57;;;15.38;;
67041;SDS011;53949;47.790;18.750;2022-08-23T00:47:02;304.75;;;19.08;;
67041;SDS011;53949;47.790;18.750;2022-08-23T00:53:40;388.85;;;19.02;;
67041;SDS011;53949;47.790;18.750;2022-08-23T00:56:46;145.45;;;13.80;;
67041;SDS011;53949;47.790;18.750;2022-08-23T00:59:50;102.28;;;13.13;;
67041;SDS011;53949;47.790;18.750;2022-08-23T01:02:53;79.87;;;15.20;;
67041;SDS011;53949;47.790;18.750;2022-08-23T01:09:15;45.92;;;11.80;;
67041;SDS011;53949;47.790;18.750;2022-08-23T01:12:22;206.00;;;15.52;;
67041;SDS011;53949;47.790;18.750;2022-08-23T01:15:36;23.85;;;11.90;;
67041;SDS011;53949;47.790;18.750;2022-08-23T01:18:44;50.47;;;11.40;;
67041;SDS011;53949;47.790;18.750;2022-08-23T01:21:51;40.45;;;11.80;;
67041;SDS011;53949;47.790;18.750;2022-08-23T01:24:59;21.00;;;11.82;;
67041;SDS011;53949;47.790;18.750;2022-08-23T01:28:11;19.33;;;11.73;;
67041;SDS011;53949;47.790;18.750;2022-08-23T01:31:14;72.22;;;13.30;;
67041;SDS011;53949;47.790;18.750;2022-08-23T01:34:20;29.15;;;12.15;;
67041;SDS011;53949;47.790;18.750;2022-08-23T01:37:28;20.83;;;11.23;;
67041;SDS011;53949;47.790;18.750;2022-08-23T01:40:31;20.73;;;11.93;;
67041;SDS011;53949;47.790;18.750;2022-08-23T01:43:38;23.73;;;11.90;;
67041;SDS011;53949;47.790;18.750;2022-08-23T01:46:42;26.45;;;11.23;;
67041;SDS011;53949;47.790;18.750;2022-08-23T01:49:47;31.67;;;12.95;;
67041;SDS011;53949;47.790;18.750;2022-08-23T01:52:50;20.52;;;11.35;;
67041;SDS011;53949;47.790;18.750;2022-08-23T01:55:54;32.75;;;13.07;;
67041;SDS011;53949;47.790;18.750;2022-08-23T01:58:57;34.08;;;12.18;;
67041;SDS011;53949;47.790;18.750;2022-08-23T02:02:03;74.35;;;12.95;;
67041;SDS011;53949;47.790;18.750;2022-08-23T02:05:08;27.23;;;12.02;;
67041;SDS011;53949;47.790;18.750;2022-08-23T02:08:12;23.02;;;11.85;;
67041;SDS011;53949;47.790;18.750;2022-08-23T02:11:36;23.10;;;12.07;;
67041;SDS011;53949;47.790;18.750;2022-08-23T02:14:40;22.30;;;12.70;;
67041;SDS011;53949;47.790;18.750;2022-08-23T02:17:44;25.13;;;12.73;;
67041;SDS011;53949;47.790;18.750;2022-08-23T02:20:49;27.73;;;12.37;;
67041;SDS011;53949;47.790;18.750;2022-08-23T02:23:53;21.90;;;12.25;;
67041;SDS011;53949;47.790;18.750;2022-08-23T02:26:58;19.10;;;11.95;;
67041;SDS011;53949;47.790;18.750;2022-08-23T02:30:03;24.90;;;11.12;;
67041;SDS011;53949;47.790;18.750;2022-08-23T02:33:07;19.90;;;11.43;;
67041;SDS011;53949;47.790;18.750;2022-08-23T02:36:11;18.98;;;11.45;;
67041;SDS011;53949;47.790;18.750;2022-08-23T02:39:15;19.27;;;10.48;;
67041;SDS011;53949;47.790;18.750;2022-08-23T02:42:19;17.40;;;11.27;;
67041;SDS011;53949;47.790;18.750;2022-08-23T02:45:23;17.37;;;11.05;;
67041;SDS011;53949;47.790;18.750;2022-08-23T02:48:26;17.23;;;9.90;;
67041;SDS011;53949;47.790;18.750;2022-08-23T02:51:30;16.45;;;9.45;;
67041;SDS011;53949;47.790;18.750;2022-08-23T02:54:34;15.80;;;10.02;;
67041;SDS011;53949;47.790;18.750;2022-08-23T02:57:37;16.35;;;10.10;;
67041;SDS011;53949;47.790;18.750;2022-08-23T03:00:49;28.00;;;10.75;;
67041;SDS011;53949;47.790;18.750;2022-08-23T03:03:54;58.90;;;11.48;;
67041;SDS011;53949;47.790;18.750;2022-08-23T03:06:58;16.67;;;10.67;;
67041;SDS011;53949;47.790;18.750;2022-08-23T03:10:04;34.72;;;9.95;;
67041;SDS011;53949;47.790;18.750;2022-08-23T03:13:15;10.18;;;6.95;;
67041;SDS011;53949;47.790;18.750;2022-08-23T03:16:19;12.45;;;7.15;;
67041;SDS011;53949;47.790;18.750;2022-08-23T03:19:25;11.48;;;6.75;;
67041;SDS011;53949;47.790;18.750;2022-08-23T03:22:28;9.05;;;6.78;;
67041;SDS011;53949;47.790;18.750;2022-08-23T03:25:32;11.30;;;7.20;;
67041;SDS011;53949;47.790;18.750;2022-08-23T03:28:37;12.85;;;7.07;;
67041;SDS011;53949;47.790;18.750;2022-08-23T03:31:42;11.48;;;7.37;;
67041;SDS011;53949;47.790;18.750;2022-08-23T03:34:46;10.80;;;7.47;;
67041;SDS011;53949;47.790;18.750;2022-08-23T03:37:50;11.20;;;7.25;;
67041;SDS011;53949;47.790;18.750;2022-08-23T03:40:57;16.33;;;8.20;;
67041;SDS011;53949;47.790;18.750;2022-08-23T03:44:01;108.43;;;10.95;;
67041;SDS011;53949;47.790;18.750;2022-08-23T03:47:06;16.87;;;9.40;;
67041;SDS011;53949;47.790;18.750;2022-08-23T03:50:09;14.32;;;8.02;;
67041;SDS011;53949;47.790;18.750;2022-08-23T03:56:25;11.60;;;8.00;;
67041;SDS011;53949;47.790;18.750;2022-08-23T03:59:41;15.98;;;9.48;;
67041;SDS011;53949;47.790;18.750;2022-08-23T04:02:45;13.55;;;9.27;;
67041;SDS011;53949;47.790;18.750;2022-08-23T04:05:49;16.23;;;9.75;;
67041;SDS011;53949;47.790;18.750;2022-08-23T04:08:53;17.30;;;8.82;;
67041;SDS011;53949;47.790;18.750;2022-08-23T04:11:57;14.15;;;9.07;;
67041;SDS011;53949;47.790;18.750;2022-08-23T04:15:00;24.33;;;9.73;;
67041;SDS011;53949;47.790;18.750;2022-08-23T04:18:09;14.85;;;9.23;;
67041;SDS011;53949;47.790;18.750;2022-08-23T04:21:17;21.77;;;9.93;;
67041;SDS011;53949;47.790;18.750;2022-08-23T04:24:24;19.80;;;10.00;;
67041;SDS011;53949;47.790;18.750;2022-08-23T04:28:00;17.25;;;9.85;;
67041;SDS011;53949;47.790;18.750;2022-08-23T04:34:09;22.50;;;10.55;;
67041;SDS011;53949;47.790;18.750;2022-08-23T04:46:18;23.90;;;10.85;;
67041;SDS011;53949;47.790;18.750;2022-08-23T04:49:44;20.17;;;10.30;;
67041;SDS011;53949;47.790;18.750;2022-08-23T04:57:55;20.15;;;10.77;;
67041;SDS011;53949;47.790;18.750;2022-08-23T05:01:00;23.73;;;9.75;;
67041;SDS011;53949;47.790;18.750;2022-08-23T05:04:04;24.55;;;10.70;;
67041;SDS011;53949;47.790;18.750;2022-08-23T05:07:09;30.27;;;10.57;;
67041;SDS011;53949;47.790;18.750;2022-08-23T05:10:14;15.00;;;10.73;;
67041;SDS011;53949;47.790;18.750;2022-08-23T05:13:18;18.73;;;11.12;;
67041;SDS011;53949;47.790;18.750;2022-08-23T05:16:22;20.48;;;10.90;;
67041;SDS011;53949;47.790;18.750;2022-08-23T05:19:26;17.83;;;10.55;;
67041;SDS011;53949;47.790;18.750;2022-08-23T05:22:35;33.90;;;10.57;;
67041;SDS011;53949;47.790;18.750;2022-08-23T05:25:41;21.12;;;11.63;;
67041;SDS011;53949;47.790;18.750;2022-08-23T05:28:55;22.17;;;10.60;;
67041;SDS011;53949;47.790;18.750;2022-08-23T05:31:59;18.73;;;10.25;;
67041;SDS011;53949;47.790;18.750;2022-08-23T05:35:05;24.23;;;10.60;;
67041;SDS011;53949;47.790;18.750;2022-08-23T05:38:09;16.98;;;9.63;;
67041;SDS011;53949;47.790;18.750;2022-08-23T05:41:14;16.45;;;9.63;;
67041;SDS011;53949;47.790;18.750;2022-08-23T05:44:18;13.93;;;8.90;;
67041;SDS011;53949;47.790;18.750;2022-08-23T05:47:23;14.73;;;9.93;;
67041;SDS011;53949;47.790;18.750;2022-08-23T05:50:29;17.98;;;9.23;;
67041;SDS011;53949;47.790;18.750;2022-08-23T05:53:33;16.77;;;9.13;;
67041;SDS011;53949;47.790;18.750;2022-08-23T05:56:39;12.73;;;8.63;;
67041;SDS011;53949;47.790;18.750;2022-08-23T06:00:10;14.45;;;8.25;;
67041;SDS011;53949;47.790;18.750;2022-08-23T06:03:19;14.40;;;8.77;;
67041;SDS011;53949;47.790;18.750;2022-08-23T06:06:26;13.15;;;8.25;;
67041;SDS011;53949;47.790;18.750;2022-08-23T06:09:39;12.18;;;7.90;;
67041;SDS011;53949;47.790;18.750;2022-08-23T06:12:43;14.00;;;7.93;;
67041;SDS011;53949;47.790;18.750;2022-08-23T06:15:46;16.45;;;8.68;;
67041;SDS011;53949;47.790;18.750;2022-08-23T06:18:50;18.27;;;9.73;;
67041;SDS011;53949;47.790;18.750;2022-08-23T06:21:55;14.52;;;8.95;;
67041;SDS011;53949;47.790;18.750;2022-08-23T06:24:59;15.52;;;9.18;;
67041;SDS011;53949;47.790;18.750;2022-08-23T06:28:09;17.83;;;10.07;;
67041;SDS011;53949;47.790;18.750;2022-08-23T06:31:13;15.63;;;10.77;;
67041;SDS011;53949;47.790;18.750;2022-08-23T06:34:19;21.02;;;9.90;;
67041;SDS011;53949;47.790;18.750;2022-08-23T06:37:30;18.40;;;10.02;;
67041;SDS011;53949;47.790;18.750;2022-08-23T06:40:34;15.60;;;10.07;;
67041;SDS011;53949;47.790;18.750;2022-08-23T06:43:40;15.57;;;9.25;;
67041;SDS011;53949;47.790;18.750;2022-08-23T06:46:49;16.62;;;9.95;;
67041;SDS011;53949;47.790;18.750;2022-08-23T06:49:53;14.95;;;9.55;;
67041;SDS011;53949;47.790;18.750;2022-08-23T06:53:03;15.60;;;9.25;;
67041;SDS011;53949;47.790;18.750;2022-08-23T06:56:12;14.00;;;8.60;;
67041;SDS011;53949;47.790;18.750;2022-08-23T06:59:19;15.70;;;8.52;;
67041;SDS011;53949;47.790;18.750;2022-08-23T07:02:47;15.45;;;8.48;;
67041;SDS011;53949;47.790;18.750;2022-08-23T07:09:41;10.85;;;7.57;;
67041;SDS011;53949;47.790;18.750;2022-08-23T07:12:48;11.38;;;7.07;;
67041;SDS011;53949;47.790;18.750;2022-08-23T07:15:57;11.73;;;7.68;;
67041;SDS011;53949;47.790;18.750;2022-08-23T07:19:04;9.73;;;7.93;;
67041;SDS011;53949;47.790;18.750;2022-08-23T07:22:09;11.45;;;7.90;;
67041;SDS011;53949;47.790;18.750;2022-08-23T07:25:12;12.98;;;8.18;;
67041;SDS011;53949;47.790;18.750;2022-08-23T07:28:19;13.65;;;8.32;;
67041;SDS011;53949;47.790;18.750;2022-08-23T07:31:28;16.12;;;7.65;;
67041;SDS011;53949;47.790;18.750;2022-08-23T07:34:36;9.75;;;6.28;;
67041;SDS011;53949;47.790;18.750;2022-08-23T07:37:39;10.27;;;6.50;;
67041;SDS011;53949;47.790;18.750;2022-08-23T07:40:43;9.07;;;6.40;;
67041;SDS011;53949;47.790;18.750;2022-08-23T07:43:56;9.40;;;6.53;;
67041;SDS011;53949;47.790;18.750;2022-08-23T07:50:04;10.43;;;5.78;;
67041;SDS011;53949;47.790;18.750;2022-08-23T07:53:09;8.65;;;6.18;;
67041;SDS011;53949;47.790;18.750;2022-08-23T07:56:14;10.85;;;6.68;;
67041;SDS011;53949;47.790;18.750;2022-08-23T07:59:26;11.50;;;7.20;;
67041;SDS011;53949;47.790;18.750;2022-08-23T08:02:36;11.73;;;7.35;;
67041;SDS011;53949;47.790;18.750;2022-08-23T08:05:40;12.77;;;7.70;;
67041;SDS011;53949;47.790;18.750;2022-08-23T08:08:43;13.82;;;8.05;;
67041;SDS011;53949;47.790;18.750;2022-08-23T08:11:47;9.35;;;7.47;;
67041;SDS011;53949;47.790;18.750;2022-08-23T08:14:51;10.45;;;7.90;;
67041;SDS011;53949;47.790;18.750;2022-08-23T08:17:57;12.20;;;7.30;;
67041;SDS011;53949;47.790;18.750;2022-08-23T08:24:13;10.88;;;7.60;;
67041;SDS011;53949;47.790;18.750;2022-08-23T08:27:18;10.38;;;7.55;;
67041;SDS011;53949;47.790;18.750;2022-08-23T08:30:21;13.00;;;7.97;;
67041;SDS011;53949;47.790;18.750;2022-08-23T08:33:24;11.57;;;8.73;;
67041;SDS011;53949;47.790;18.750;2022-08-23T08:39:50;10.23;;;7.57;;
67041;SDS011;53949;47.790;18.750;2022-08-23T08:46:49;13.05;;;7.62;;
67041;SDS011;53949;47.790;18.750;2022-08-23T08:56:31;11.68;;;7.80;;
67041;SDS011;53949;47.790;18.750;2022-08-23T09:03:03;9.80;;;7.50;;
67041;SDS011;53949;47.790;18.750;2022-08-23T09:06:15;13.20;;;7.18;;
67041;SDS011;53949;47.790;18.750;2022-08-23T09:15:51;10.93;;;8.05;;
67041;SDS011;53949;47.790;18.750;2022-08-23T09:19:18;9.63;;;7.95;;
67041;SDS011;53949;47.790;18.750;2022-08-23T09:22:27;10.48;;;8.10;;
67041;SDS011;53949;47.790;18.750;2022-08-23T09:25:35;10.65;;;8.30;;
67041;SDS011;53949;47.790;18.750;2022-08-23T09:28:39;10.32;;;8.18;;
67041;SDS011;53949;47.790;18.750;2022-08-23T09:31:46;12.13;;;9.13;;
67041;SDS011;53949;47.790;18.750;2022-08-23T09:34:52;12.25;;;8.43;;
67041;SDS011;53949;47.790;18.750;2022-08-23T09:38:18;12.75;;;8.73;;
67041;SDS011;53949;47.790;18.750;2022-08-23T09:41:24;10.10;;;8.20;;
67041;SDS011;53949;47.790;18.750;2022-08-23T09:44:34;10.98;;;9.07;;
67041;SDS011;53949;47.790;18.750;2022-08-23T09:47:41;9.30;;;8.07;;
67041;SDS011;53949;47.790;18.750;2022-08-23T09:50:48;10.40;;;8.38;;
67041;SDS011;53949;47.790;18.750;2022-08-23T09:54:16;11.38;;;8.15;;
67041;SDS011;53949;47.790;18.750;2022-08-23T09:57:25;11.98;;;9.00;;
67041;SDS011;53949;47.790;18.750;2022-08-23T10:00:32;13.55;;;8.90;;
67041;SDS011;53949;47.790;18.750;2022-08-23T10:03:37;11.18;;;7.90;;
67041;SDS011;53949;47.790;18.750;2022-08-23T10:06:45;8.77;;;7.43;;
67041;SDS011;53949;47.790;18.750;2022-08-23T10:17:53;11.25;;;8.32;;
67041;SDS011;53949;47.790;18.750;2022-08-23T10:21:22;9.65;;;7.05;;
67041;SDS011;53949;47.790;18.750;2022-08-23T10:25:40;11.75;;;8.63;;
67041;SDS011;53949;47.790;18.750;2022-08-23T10:28:57;10.02;;;7.70;;
67041;SDS011;53949;47.790;18.750;2022-08-23T10:38:54;9.15;;;8.15;;
67041;SDS011;53949;47.790;18.750;2022-08-23T10:42:04;12.15;;;8.88;;
67041;SDS011;53949;47.790;18.750;2022-08-23T10:45:18;12.25;;;9.40;;
67041;SDS011;53949;47.790;18.750;2022-08-23T10:48:35;11.60;;;9.70;;
67041;SDS011;53949;47.790;18.750;2022-08-23T10:51:44;13.93;;;10.45;;
67041;SDS011;53949;47.790;18.750;2022-08-23T10:55:04;13.25;;;10.13;;
67041;SDS011;53949;47.790;18.750;2022-08-23T10:58:21;13.20;;;9.63;;
67041;SDS011;53949;47.790;18.750;2022-08-23T11:05:19;12.85;;;10.30;;
67041;SDS011;53949;47.790;18.750;2022-08-23T11:08:31;11.75;;;9.02;;
67041;SDS011;53949;47.790;18.750;2022-08-23T11:15:17;10.82;;;8.45;;
67041;SDS011;53949;47.790;18.750;2022-08-23T11:24:53;7.80;;;7.03;;
67041;SDS011;53949;47.790;18.750;2022-08-23T11:31:31;8.40;;;7.22;;
67041;SDS011;53949;47.790;18.750;2022-08-23T11:34:57;6.78;;;6.15;;
67041;SDS011;53949;47.790;18.750;2022-08-23T11:41:58;8.63;;;6.82;;
67041;SDS011;53949;47.790;18.750;2022-08-23T11:52:44;9.25;;;6.80;;
67041;SDS011;53949;47.790;18.750;2022-08-23T12:02:27;8.68;;;6.55;;
67041;SDS011;53949;47.790;18.750;2022-08-23T12:06:09;6.87;;;6.18;;
67041;SDS011;53949;47.790;18.750;2022-08-23T12:16:47;7.95;;;6.78;;
67041;SDS011;53949;47.790;18.750;2022-08-23T12:23:18;8.85;;;5.80;;
67041;SDS011;53949;47.790;18.750;2022-08-23T12:26:28;6.82;;;5.35;;
67041;SDS011;53949;47.790;18.750;2022-08-23T12:29:38;8.50;;;6.90;;
67041;SDS011;53949;47.790;18.750;2022-08-23T12:33:01;7.62;;;6.40;;
67041;SDS011;53949;47.790;18.750;2022-08-23T12:44:24;7.37;;;6.07;;
67041;SDS011;53949;47.790;18.750;2022-08-23T12:47:28;7.72;;;6.57;;
67041;SDS011;53949;47.790;18.750;2022-08-23T12:58:03;7.55;;;5.75;;
67041;SDS011;53949;47.790;18.750;2022-08-23T13:01:16;6.75;;;6.07;;
67041;SDS011;53949;47.790;18.750;2022-08-23T13:07:55;5.78;;;5.18;;
67041;SDS011;53949;47.790;18.750;2022-08-23T13:11:04;6.87;;;5.75;;
67041;SDS011;53949;47.790;18.750;2022-08-23T13:25:30;7.07;;;5.97;;
67041;SDS011;53949;47.790;18.750;2022-08-23T13:32:41;9.27;;;6.20;;
67041;SDS011;53949;47.790;18.750;2022-08-23T13:36:21;7.50;;;5.65;;
67041;SDS011;53949;47.790;18.750;2022-08-23T13:55:50;6.40;;;5.75;;
67041;SDS011;53949;47.790;18.750;2022-08-23T14:06:58;7.28;;;5.22;;
67041;SDS011;53949;47.790;18.750;2022-08-23T14:43:18;5.40;;;4.90;;
67041;SDS011;53949;47.790;18.750;2022-08-23T14:46:23;7.57;;;5.43;;
67041;SDS011;53949;47.790;18.750;2022-08-23T14:49:26;5.40;;;4.65;;
67041;SDS011;53949;47.790;18.750;2022-08-23T14:52:46;6.85;;;5.40;;
67041;SDS011;53949;47.790;18.750;2022-08-23T14:55:55;7.40;;;5.05;;
67041;SDS011;53949;47.790;18.750;2022-08-23T14:59:19;6.18;;;5.40;;
67041;SDS011;53949;47.790;18.750;2022-08-23T15:03:03;5.57;;;5.07;;
67041;SDS011;53949;47.790;18.750;2022-08-23T15:06:12;12.43;;;4.53;;
67041;SDS011;53949;47.790;18.750;2022-08-23T15:12:27;5.53;;;4.68;;
67041;SDS011;53949;47.790;18.750;2022-08-23T15:26:59;4.55;;;4.15;;
67041;SDS011;53949;47.790;18.750;2022-08-23T15:37:57;5.30;;;4.28;;
67041;SDS011;53949;47.790;18.750;2022-08-23T15:41:24;5.25;;;4.10;;
67041;SDS011;53949;47.790;18.750;2022-08-23T15:44:27;4.75;;;4.35;;
67041;SDS011;53949;47.790;18.750;2022-08-23T16:07:41;4.40;;;3.83;;
67041;SDS011;53949;47.790;18.750;2022-08-23T16:22:15;4.25;;;3.85;;
67041;SDS011;53949;47.790;18.750;2022-08-23T16:33:46;3.30;;;3.00;;
67041;SDS011;53949;47.790;18.750;2022-08-23T16:44:54;5.87;;;3.40;;
67041;SDS011;53949;47.790;18.750;2022-08-23T16:47:57;6.55;;;3.08;;
67041;SDS011;53949;47.790;18.750;2022-08-23T16:54:32;3.37;;;3.00;;
67041;SDS011;53949;47.790;18.750;2022-08-23T16:58:02;5.85;;;2.95;;
67041;SDS011;53949;47.790;18.750;2022-08-23T17:01:14;3.28;;;2.70;;
67041;SDS011;53949;47.790;18.750;2022-08-23T17:04:48;7.00;;;3.20;;
67041;SDS011;53949;47.790;18.750;2022-08-23T17:16:16;3.00;;;2.70;;
67041;SDS011;53949;47.790;18.750;2022-08-23T17:26:19;5.10;;;2.62;;
67041;SDS011;53949;47.790;18.750;2022-08-23T17:29:31;5.35;;;3.20;;
67041;SDS011;53949;47.790;18.750;2022-08-23T17:32:44;3.67;;;2.95;;
67041;SDS011;53949;47.790;18.750;2022-08-23T17:35:52;7.22;;;3.60;;
67041;SDS011;53949;47.790;18.750;2022-08-23T17:42:09;2.85;;;2.65;;
67041;SDS011;53949;47.790;18.750;2022-08-23T17:45:15;3.15;;;2.90;;
67041;SDS011;53949;47.790;18.750;2022-08-23T17:48:19;3.53;;;3.03;;
67041;SDS011;53949;47.790;18.750;2022-08-23T17:51:23;3.60;;;3.30;;
67041;SDS011;53949;47.790;18.750;2022-08-23T17:54:26;4.03;;;3.50;;
67041;SDS011;53949;47.790;18.750;2022-08-23T17:57:30;3.45;;;3.15;;
67041;SDS011;53949;47.790;18.750;2022-08-23T18:00:34;5.57;;;3.33;;
67041;SDS011;53949;47.790;18.750;2022-08-23T18:03:39;5.28;;;3.58;;
67041;SDS011;53949;47.790;18.750;2022-08-23T18:06:44;5.72;;;4.95;;
67041;SDS011;53949;47.790;18.750;2022-08-23T18:09:47;3.63;;;3.33;;
67041;SDS011;53949;47.790;18.750;2022-08-23T18:12:50;3.35;;;3.08;;
67041;SDS011;53949;47.790;18.750;2022-08-23T18:15:53;7.28;;;3.62;;
67041;SDS011;53949;47.790;18.750;2022-08-23T18:18:57;3.75;;;3.45;;
67041;SDS011;53949;47.790;18.750;2022-08-23T18:22:04;4.28;;;3.87;;
67041;SDS011;53949;47.790;18.750;2022-08-23T18:25:10;3.90;;;3.50;;
67041;SDS011;53949;47.790;18.750;2022-08-23T18:28:15;5.45;;;3.40;;
67041;SDS011;53949;47.790;18.750;2022-08-23T18:31:19;3.97;;;3.57;;
67041;SDS011;53949;47.790;18.750;2022-08-23T18:34:23;3.87;;;3.20;;
67041;SDS011;53949;47.790;18.750;2022-08-23T18:37:26;5.37;;;3.80;;
67041;SDS011;53949;47.790;18.750;2022-08-23T18:40:30;3.95;;;3.20;;
67041;SDS011;53949;47.790;18.750;2022-08-23T18:43:47;3.62;;;3.33;;
67041;SDS011;53949;47.790;18.750;2022-08-23T18:46:51;4.00;;;3.60;;
67041;SDS011;53949;47.790;18.750;2022-08-23T18:49:54;3.67;;;3.33;;
67041;SDS011;53949;47.790;18.750;2022-08-23T18:52:57;5.30;;;3.42;;
67041;SDS011;53949;47.790;18.750;2022-08-23T18:56:01;3.05;;;2.85;;
67041;SDS011;53949;47.790;18.750;2022-08-23T18:59:04;3.95;;;3.58;;
67041;SDS011;53949;47.790;18.750;2022-08-23T19:02:08;4.45;;;3.40;;
67041;SDS011;53949;47.790;18.750;2022-08-23T19:05:12;3.87;;;3.58;;
67041;SDS011;53949;47.790;18.750;2022-08-23T19:08:17;3.62;;;3.33;;
67041;SDS011;53949;47.790;18.750;2022-08-23T19:11:21;4.07;;;3.45;;
67041;SDS011;53949;47.790;18.750;2022-08-23T19:14:25;4.15;;;3.85;;
67041;SDS011;53949;47.790;18.750;2022-08-23T19:17:29;4.25;;;3.85;;
67041;SDS011;53949;47.790;18.750;2022-08-23T19:20:34;3.80;;;3.50;;
67041;SDS011;53949;47.790;18.750;2022-08-23T19:23:38;3.95;;;3.62;;
67041;SDS011;53949;47.790;18.750;2022-08-23T19:26:41;4.15;;;3.70;;
67041;SDS011;53949;47.790;18.750;2022-08-23T19:29:49;3.60;;;3.30;;
67041;SDS011;53949;47.790;18.750;2022-08-23T19:32:53;4.72;;;4.12;;
67041;SDS011;53949;47.790;18.750;2022-08-23T19:35:57;3.83;;;3.53;;
67041;SDS011;53949;47.790;18.750;2022-08-23T19:39:02;4.03;;;3.72;;
67041;SDS011;53949;47.790;18.750;2022-08-23T19:42:10;9.23;;;4.18;;
67041;SDS011;53949;47.790;18.750;2022-08-23T19:45:13;3.67;;;3.37;;
67041;SDS011;53949;47.790;18.750;2022-08-23T19:48:18;5.30;;;3.50;;
67041;SDS011;53949;47.790;18.750;2022-08-23T19:55:48;4.47;;;4.03;;
67041;SDS011;53949;47.790;18.750;2022-08-23T19:58:57;5.20;;;4.53;;
67041;SDS011;53949;47.790;18.750;2022-08-23T20:02:01;5.18;;;4.50;;
67041;SDS011;53949;47.790;18.750;2022-08-23T20:05:06;4.32;;;3.90;;
67041;SDS011;53949;47.790;18.750;2022-08-23T20:08:10;6.53;;;4.50;;
67041;SDS011;53949;47.790;18.750;2022-08-23T20:14:56;4.70;;;4.30;;
67041;SDS011;53949;47.790;18.750;2022-08-23T20:18:00;4.30;;;3.90;;
67041;SDS011;53949;47.790;18.750;2022-08-23T20:21:03;4.53;;;4.12;;
67041;SDS011;53949;47.790;18.750;2022-08-23T20:24:09;5.28;;;4.75;;
67041;SDS011;53949;47.790;18.750;2022-08-23T20:27:13;6.35;;;4.10;;
67041;SDS011;53949;47.790;18.750;2022-08-23T20:30:34;5.12;;;3.70;;
67041;SDS011;53949;47.790;18.750;2022-08-23T20:33:39;4.72;;;3.78;;
67041;SDS011;53949;47.790;18.750;2022-08-23T20:36:48;4.50;;;3.92;;
67041;SDS011;53949;47.790;18.750;2022-08-23T20:39:57;5.03;;;4.05;;
67041;SDS011;53949;47.790;18.750;2022-08-23T20:43:29;4.57;;;4.18;;
67041;SDS011;53949;47.790;18.750;2022-08-23T20:51:53;4.45;;;4.15;;
67041;SDS011;53949;47.790;18.750;2022-08-23T21:57:21;6.10;;;5.50;;
67041;SDS011;53949;47.790;18.750;2022-08-23T22:00:24;6.60;;;5.80;;
67041;SDS011;53949;47.790;18.750;2022-08-23T22:03:28;7.82;;;6.05;;
67041;SDS011;53949;47.790;18.750;2022-08-23T22:06:31;7.10;;;5.87;;
67041;SDS011;53949;47.790;18.750;2022-08-23T22:09:36;6.18;;;5.57;;
67041;SDS011;53949;47.790;18.750;2022-08-23T22:12:40;6.37;;;5.77;;
67041;SDS011;53949;47.790;18.750;2022-08-23T22:15:46;6.60;;;6.00;;
67041;SDS011;53949;47.790;18.750;2022-08-23T22:22:27;6.80;;;5.80;;
67041;SDS011;53949;47.790;18.750;2022-08-23T22:25:30;8.35;;;6.25;;
67041;SDS011;53949;47.790;18.750;2022-08-23T22:28:34;6.90;;;6.28;;
67041;SDS011;53949;47.790;18.750;2022-08-23T22:31:38;5.60;;;5.07;;
67041;SDS011;53949;47.790;18.750;2022-08-23T22:34:42;6.95;;;5.97;;
67041;SDS011;53949;47.790;18.750;2022-08-23T22:37:45;6.97;;;6.37;;
67041;SDS011;53949;47.790;18.750;2022-08-23T22:41:18;6.72;;;6.12;;
67041;SDS011;53949;47.790;18.750;2022-08-23T22:44:26;7.53;;;6.60;;
67041;SDS011;53949;47.790;18.750;2022-08-23T22:47:31;7.25;;;5.97;;
67041;SDS011;53949;47.790;18.750;2022-08-23T22:50:35;8.60;;;7.18;;
67041;SDS011;53949;47.790;18.750;2022-08-23T22:53:39;7.78;;;6.60;;
67041;SDS011;53949;47.790;18.750;2022-08-23T22:56:47;7.32;;;6.68;;
67041;SDS011;53949;47.790;18.750;2022-08-23T22:59:52;6.37;;;5.78;;
67041;SDS011;53949;47.790;18.750;2022-08-23T23:02:59;6.72;;;6.12;;
67041;SDS011;53949;47.790;18.750;2022-08-23T23:06:05;6.97;;;6.28;;
67041;SDS011;53949;47.790;18.750;2022-08-23T23:09:08;7.85;;;6.50;;
67041;SDS011;53949;47.790;18.750;2022-08-23T23:15:15;7.20;;;6.45;;
67041;SDS011;53949;47.790;18.750;2022-08-23T23:18:19;8.55;;;6.37;;
67041;SDS011;53949;47.790;18.750;2022-08-23T23:21:23;7.10;;;6.40;;
67041;SDS011;53949;47.790;18.750;2022-08-23T23:24:28;7.72;;;6.82;;
67041;SDS011;53949;47.790;18.750;2022-08-23T23:27:39;8.18;;;7.10;;
67041;SDS011;53949;47.790;18.750;2022-08-23T23:30:43;7.30;;;6.60;;
67041;SDS011;53949;47.790;18.750;2022-08-23T23:34:01;7.35;;;6.57;;
67041;SDS011;53949;47.790;18.750;2022-08-23T23:37:04;7.18;;;6.47;;
67041;SDS011;53949;47.790;18.750;2022-08-23T23:40:10;9.60;;;6.90;;
67041;SDS011;53949;47.790;18.750;2022-08-23T23:43:21;7.72;;;6.93;;
67041;SDS011;53949;47.790;18.750;2022-08-23T23:46:25;7.90;;;7.15;;
67041;SDS011;53949;47.790;18.750;2022-08-23T23:56:51;8.38;;;7.57;;
